createdAt,value
2018-05-13T00:00:02.682Z,803.52
2018-05-13T00:00:07.028Z,803.52
2018-05-13T00:00:11.362Z,803.51
2018-05-13T00:00:15.689Z,803.5
2018-05-13T00:00:20.010Z,803.45
2018-05-13T00:00:24.112Z,803.5
2018-05-13T00:00:28.207Z,803.49
2018-05-13T00:00:32.521Z,803.5
2018-05-13T00:00:36.838Z,803.49
2018-05-13T00:00:41.052Z,803.5
2018-05-13T00:00:45.263Z,803.49
2018-05-13T00:00:49.480Z,803.48
2018-05-13T00:00:53.587Z,803.52
2018-05-13T00:00:57.899Z,803.57
2018-05-13T00:01:02.115Z,803.51
2018-05-13T00:01:06.220Z,803.46
2018-05-13T00:01:10.536Z,803.49
2018-05-13T00:01:14.862Z,803.48
2018-05-13T00:01:19.071Z,803.5
2018-05-13T00:01:23.299Z,803.48
2018-05-13T00:01:27.407Z,803.44
2018-05-13T00:01:31.612Z,803.48
2018-05-13T00:01:35.928Z,803.43
2018-05-13T00:01:40.140Z,803.47
2018-05-13T00:01:44.348Z,803.5
2018-05-13T00:01:48.561Z,803.48
2018-05-13T00:01:52.772Z,803.47
2018-05-13T00:01:57.085Z,803.46
2018-05-13T00:02:01.397Z,803.47
2018-05-13T00:02:05.505Z,803.48
2018-05-13T00:02:46.040Z,803.46
2018-05-13T00:02:50.264Z,803.48
2018-05-13T00:02:54.478Z,803.4
2018-05-13T00:02:58.834Z,803.48
2018-05-13T00:03:02.827Z,803.46
2018-05-13T00:03:07.040Z,803.45
2018-05-13T00:03:11.142Z,803.49
2018-05-13T00:03:15.244Z,803.49
2018-05-13T00:03:19.464Z,803.5
2018-05-13T00:03:23.791Z,803.48
2018-05-13T00:03:28.116Z,803.48
2018-05-13T00:03:32.335Z,803.51
2018-05-13T00:03:36.328Z,803.47
2018-05-13T00:03:40.441Z,803.5
2018-05-13T00:03:44.768Z,803.4
2018-05-13T00:03:49.088Z,803.48
2018-05-13T00:03:53.301Z,803.49
2018-05-13T00:03:57.517Z,803.49
2018-05-13T00:04:01.781Z,803.45
2018-05-13T00:04:06.106Z,803.5
2018-05-13T00:04:10.315Z,803.48
2018-05-13T00:04:14.534Z,803.47
2018-05-13T00:04:18.635Z,803.44
2018-05-13T00:04:22.758Z,803.5
2018-05-13T00:04:26.969Z,803.49
2018-05-13T00:04:31.181Z,803.5
2018-05-13T00:04:35.507Z,803.51
2018-05-13T00:04:39.736Z,803.48
2018-05-13T00:04:43.945Z,803.48
2018-05-13T00:04:48.045Z,803.47
2018-05-13T00:04:52.153Z,803.46
2018-05-13T00:04:56.476Z,803.47
2018-05-13T00:05:00.684Z,803.45
2018-05-13T00:05:04.798Z,803.48
2018-05-13T00:05:09.078Z,803.46
2018-05-13T00:05:13.712Z,803.45
2018-05-13T00:05:18.127Z,803.47
2018-05-13T00:05:22.613Z,803.46
2018-05-13T00:05:27.078Z,803.45
2018-05-13T00:05:31.408Z,803.47
2018-05-13T00:05:35.501Z,803.44
2018-05-13T00:05:39.706Z,803.44
2018-05-13T00:05:44.018Z,803.45
2018-05-13T00:05:48.341Z,803.43
2018-05-13T00:05:52.549Z,803.42
2018-05-13T00:05:56.658Z,803.46
2018-05-13T00:06:00.878Z,803.43
2018-05-13T00:06:04.875Z,803.42
2018-05-13T00:06:08.982Z,803.44
2018-05-13T00:06:13.291Z,803.41
2018-05-13T00:06:17.615Z,803.44
2018-05-13T00:06:21.832Z,803.4
2018-05-13T00:06:25.938Z,803.41
2018-05-13T00:06:30.155Z,803.42
2018-05-13T00:06:34.152Z,803.39
2018-05-13T00:06:38.361Z,803.4
2018-05-13T00:06:42.678Z,803.34
2018-05-13T00:06:46.894Z,803.39
2018-05-13T00:06:51.208Z,803.38
2018-05-13T00:06:55.429Z,803.41
2018-05-13T00:06:59.756Z,803.37
2018-05-13T00:07:03.856Z,803.41
2018-05-13T00:07:07.867Z,803.39
2018-05-13T00:07:12.284Z,803.39
2018-05-13T00:07:16.493Z,803.41
2018-05-13T00:07:20.705Z,803.39
2018-05-13T00:07:24.911Z,803.39
2018-05-13T00:07:29.231Z,803.4
2018-05-13T00:07:33.452Z,803.42
2018-05-13T00:07:37.777Z,803.4
2018-05-13T00:07:42.170Z,803.35
2018-05-13T00:07:46.385Z,803.4
2018-05-13T00:07:50.705Z,803.41
2018-05-13T00:07:54.920Z,803.4
2018-05-13T00:07:59.133Z,803.39
2018-05-13T00:08:03.387Z,803.4
2018-05-13T00:08:07.707Z,803.4
2018-05-13T00:08:11.918Z,803.35
2018-05-13T00:08:16.145Z,803.38
2018-05-13T00:08:20.150Z,803.39
2018-05-13T00:08:24.270Z,803.37
2018-05-13T00:08:28.368Z,803.38
2018-05-13T00:08:32.685Z,803.37
2018-05-13T00:08:36.898Z,803.36
2018-05-13T00:08:41.219Z,803.38
2018-05-13T00:08:45.319Z,803.35
2018-05-13T00:08:49.528Z,803.36
2018-05-13T00:08:53.673Z,803.34
2018-05-13T00:08:57.778Z,803.31
2018-05-13T00:09:02.102Z,803.37
2018-05-13T00:09:06.317Z,803.38
2018-05-13T00:09:10.609Z,803.33
2018-05-13T00:09:14.710Z,803.35
2018-05-13T00:09:18.711Z,803.36
2018-05-13T00:09:22.914Z,803.33
2018-05-13T00:09:27.021Z,803.36
2018-05-13T00:09:31.228Z,803.39
2018-05-13T00:09:35.547Z,803.4
2018-05-13T00:09:39.760Z,803.36
2018-05-13T00:09:43.964Z,803.38
2018-05-13T00:09:48.286Z,803.37
2018-05-13T00:09:52.387Z,803.32
2018-05-13T00:09:56.704Z,803.36
2018-05-13T00:10:00.967Z,803.33
2018-05-13T00:10:05.086Z,803.36
2018-05-13T00:10:09.189Z,803.35
2018-05-13T00:10:13.518Z,803.35
2018-05-13T00:10:17.630Z,803.38
2018-05-13T00:10:21.731Z,803.37
2018-05-13T00:10:26.048Z,803.41
2018-05-13T00:10:30.373Z,803.36
2018-05-13T00:10:34.588Z,803.34
2018-05-13T00:10:38.911Z,803.33
2018-05-13T00:10:43.125Z,803.39
2018-05-13T00:10:47.352Z,803.37
2018-05-13T00:10:51.559Z,803.32
2018-05-13T00:10:55.659Z,803.3
2018-05-13T00:10:59.773Z,803.37
2018-05-13T00:11:03.901Z,803.38
2018-05-13T00:11:08.219Z,803.36
2018-05-13T00:11:12.442Z,803.31
2018-05-13T00:11:16.660Z,803.36
2018-05-13T00:11:20.659Z,803.38
2018-05-13T00:11:24.983Z,803.36
2018-05-13T00:11:29.327Z,803.34
2018-05-13T00:11:33.654Z,803.36
2018-05-13T00:11:37.966Z,803.36
2018-05-13T00:11:42.284Z,803.39
2018-05-13T00:11:46.393Z,803.36
2018-05-13T00:11:50.720Z,803.34
2018-05-13T00:11:55.040Z,803.37
2018-05-13T00:11:59.251Z,803.37
2018-05-13T00:12:03.404Z,803.36
2018-05-13T00:12:07.619Z,803.34
2018-05-13T00:12:11.722Z,803.36
2018-05-13T00:12:16.055Z,803.37
2018-05-13T00:12:20.264Z,803.3
2018-05-13T00:12:24.590Z,803.29
2018-05-13T00:12:28.804Z,803.31
2018-05-13T00:12:33.014Z,803.34
2018-05-13T00:12:37.263Z,803.35
2018-05-13T00:12:41.362Z,803.37
2018-05-13T00:12:45.689Z,803.37
2018-05-13T00:12:49.901Z,803.34
2018-05-13T00:12:54.224Z,803.31
2018-05-13T00:12:58.428Z,803.34
2018-05-13T00:13:02.803Z,803.34
2018-05-13T00:13:06.907Z,803.33
2018-05-13T00:13:11.231Z,803.34
2018-05-13T00:13:15.546Z,803.34
2018-05-13T00:13:19.762Z,803.34
2018-05-13T00:13:23.976Z,803.33
2018-05-13T00:13:28.304Z,803.34
2018-05-13T00:13:32.514Z,803.33
2018-05-13T00:13:36.721Z,803.33
2018-05-13T00:13:41.036Z,803.34
2018-05-13T00:13:45.274Z,803.34
2018-05-13T00:13:49.601Z,803.35
2018-05-13T00:13:53.935Z,803.34
2018-05-13T00:13:58.033Z,803.35
2018-05-13T00:14:02.360Z,803.35
2018-05-13T00:14:06.686Z,803.34
2018-05-13T00:14:10.895Z,803.3
2018-05-13T00:14:15.110Z,803.31
2018-05-13T00:14:19.425Z,803.33
2018-05-13T00:14:23.534Z,803.34
2018-05-13T00:14:27.651Z,803.33
2018-05-13T00:14:31.751Z,803.31
2018-05-13T00:14:36.074Z,803.29
2018-05-13T00:14:40.471Z,803.25
2018-05-13T00:14:44.684Z,803.3
2018-05-13T00:14:48.790Z,803.27
2018-05-13T00:14:53.113Z,803.3
2018-05-13T00:14:57.324Z,803.31
2018-05-13T00:15:01.642Z,803.28
2018-05-13T00:15:05.539Z,803.28
2018-05-13T00:15:09.642Z,803.31
2018-05-13T00:15:13.856Z,803.3
2018-05-13T00:15:18.178Z,803.3
2018-05-13T00:15:22.391Z,803.28
2018-05-13T00:15:26.711Z,803.26
2018-05-13T00:15:30.879Z,803.29
2018-05-13T00:15:35.199Z,803.27
2018-05-13T00:15:39.191Z,803.25
2018-05-13T00:15:43.191Z,803.26
2018-05-13T00:15:47.509Z,803.25
2018-05-13T00:15:51.823Z,803.26
2018-05-13T00:15:56.143Z,803.27
2018-05-13T00:16:00.352Z,803.28
2018-05-13T00:16:04.569Z,803.27
2018-05-13T00:16:08.890Z,803.25
2018-05-13T00:16:13.210Z,803.28
2018-05-13T00:16:17.431Z,803.27
2018-05-13T00:16:21.636Z,803.27
2018-05-13T00:16:25.955Z,803.24
2018-05-13T00:16:30.169Z,803.25
2018-05-13T00:16:34.275Z,803.26
2018-05-13T00:16:38.374Z,803.26
2018-05-13T00:16:42.589Z,803.24
2018-05-13T00:16:46.912Z,803.24
2018-05-13T00:16:51.226Z,803.24
2018-05-13T00:16:55.542Z,803.19
2018-05-13T00:16:59.855Z,803.23
2018-05-13T00:17:03.897Z,803.25
2018-05-13T00:17:07.914Z,803.22
2018-05-13T00:17:12.123Z,803.22
2018-05-13T00:17:16.457Z,803.21
2018-05-13T00:17:20.450Z,803.23
2018-05-13T00:17:24.769Z,803.22
2018-05-13T00:17:28.976Z,803.21
2018-05-13T00:17:33.302Z,803.19
2018-05-13T00:17:37.294Z,803.19
2018-05-13T00:17:41.612Z,803.18
2018-05-13T00:17:45.817Z,803.23
2018-05-13T00:17:50.131Z,803.18
2018-05-13T00:17:54.461Z,803.18
2018-05-13T00:17:58.779Z,803.19
2018-05-13T00:18:02.798Z,803.17
2018-05-13T00:18:06.938Z,803.16
2018-05-13T00:18:11.151Z,803.18
2018-05-13T00:18:15.362Z,803.17
2018-05-13T00:18:19.467Z,803.13
2018-05-13T00:18:23.672Z,803.14
2018-05-13T00:18:27.995Z,803.17
2018-05-13T00:18:32.202Z,803.18
2018-05-13T00:18:36.323Z,803.15
2018-05-13T00:18:40.650Z,803.18
2018-05-13T00:18:44.973Z,803.17
2018-05-13T00:18:49.288Z,803.14
2018-05-13T00:18:53.502Z,803.12
2018-05-13T00:18:57.608Z,803.13
2018-05-13T00:19:01.825Z,803.15
2018-05-13T00:19:06.149Z,803.12
2018-05-13T00:19:10.358Z,803.14
2018-05-13T00:19:14.575Z,803.11
2018-05-13T00:19:18.898Z,803.1
2018-05-13T00:19:22.997Z,803.11
2018-05-13T00:19:27.043Z,803.12
2018-05-13T00:19:31.264Z,803.1
2018-05-13T00:19:35.592Z,803.11
2018-05-13T00:19:39.807Z,803.11
2018-05-13T00:19:44.125Z,803.11
2018-05-13T00:19:48.519Z,803.11
2018-05-13T00:19:52.613Z,803.09
2018-05-13T00:19:56.933Z,803.07
2018-05-13T00:20:01.143Z,803.09
2018-05-13T00:20:05.356Z,803.09
2018-05-13T00:20:09.573Z,803.11
2018-05-13T00:20:13.783Z,803.06
2018-05-13T00:20:17.889Z,803.09
2018-05-13T00:20:21.989Z,803.12
2018-05-13T00:20:26.353Z,803.09
2018-05-13T00:20:30.459Z,803.05
2018-05-13T00:20:34.668Z,803.05
2018-05-13T00:20:38.790Z,803.06
2018-05-13T00:20:42.901Z,803.01
2018-05-13T00:20:47.110Z,803.05
2018-05-13T00:20:51.227Z,803.06
2018-05-13T00:20:55.442Z,803.09
2018-05-13T00:20:59.647Z,803.08
2018-05-13T00:21:03.868Z,803.06
2018-05-13T00:21:07.973Z,803.08
2018-05-13T00:21:12.186Z,803.04
2018-05-13T00:21:16.397Z,803.07
2018-05-13T00:21:20.511Z,803.08
2018-05-13T00:21:24.841Z,803.07
2018-05-13T00:21:28.993Z,803.02
2018-05-13T00:21:33.309Z,803.06
2018-05-13T00:21:37.628Z,803.04
2018-05-13T00:21:41.834Z,803
2018-05-13T00:21:45.940Z,803
2018-05-13T00:21:50.264Z,803.06
2018-05-13T00:21:54.472Z,803.06
2018-05-13T00:21:58.792Z,803.03
2018-05-13T00:22:02.913Z,803.05
2018-05-13T00:22:07.129Z,803.06
2018-05-13T00:22:11.230Z,802.97
2018-05-13T00:22:15.560Z,803.06
2018-05-13T00:22:19.559Z,803.08
2018-05-13T00:22:23.845Z,803.04
2018-05-13T00:22:28.179Z,802.99
2018-05-13T00:22:32.280Z,803.08
2018-05-13T00:22:36.609Z,803.09
2018-05-13T00:22:40.820Z,803.1
2018-05-13T00:22:44.814Z,803.02
2018-05-13T00:22:48.933Z,803
2018-05-13T00:22:53.155Z,803.07
2018-05-13T00:22:57.366Z,803.07
2018-05-13T00:23:01.584Z,803.07
2018-05-13T00:23:05.708Z,802.97
2018-05-13T00:23:09.815Z,803.04
2018-05-13T00:23:14.032Z,803.07
2018-05-13T00:23:18.246Z,803.01
2018-05-13T00:23:22.257Z,803.07
2018-05-13T00:23:26.578Z,803.06
2018-05-13T00:23:30.897Z,803.09
2018-05-13T00:23:35.112Z,803.09
2018-05-13T00:23:39.326Z,803.06
2018-05-13T00:23:43.645Z,803.07
2018-05-13T00:23:47.860Z,803.08
2018-05-13T00:23:51.958Z,803.05
2018-05-13T00:23:56.069Z,803.07
2018-05-13T00:24:00.388Z,803.05
2018-05-13T00:24:04.493Z,803.07
2018-05-13T00:24:08.600Z,803.06
2018-05-13T00:24:12.919Z,803.11
2018-05-13T00:24:17.250Z,803.05
2018-05-13T00:24:21.354Z,803.02
2018-05-13T00:24:25.502Z,803.09
2018-05-13T00:24:29.448Z,803.06
2018-05-13T00:24:33.654Z,803.08
2018-05-13T00:24:38.054Z,803.07
2018-05-13T00:24:42.265Z,803.09
2018-05-13T00:24:46.591Z,803.12
2018-05-13T00:24:50.911Z,803.08
2018-05-13T00:24:55.023Z,803.1
2018-05-13T00:24:59.236Z,803.08
2018-05-13T00:25:03.571Z,803.06
2018-05-13T00:25:07.677Z,803.12
2018-05-13T00:25:11.994Z,803.06
2018-05-13T00:25:16.296Z,803.09
2018-05-13T00:25:20.398Z,803.08
2018-05-13T00:25:24.626Z,803.12
2018-05-13T00:25:28.847Z,803.12
2018-05-13T00:25:33.059Z,803.1
2018-05-13T00:25:37.265Z,803.11
2018-05-13T00:25:41.507Z,803.11
2018-05-13T00:25:45.608Z,803.13
2018-05-13T00:25:49.936Z,803.11
2018-05-13T00:25:54.142Z,803.12
2018-05-13T00:25:58.354Z,803.11
2018-05-13T00:26:02.663Z,803.12
2018-05-13T00:26:06.875Z,803.07
2018-05-13T00:26:11.084Z,803.1
2018-05-13T00:26:15.397Z,803.13
2018-05-13T00:26:19.715Z,803.15
2018-05-13T00:26:23.923Z,803.1
2018-05-13T00:26:28.133Z,803.12
2018-05-13T00:26:32.238Z,803.14
2018-05-13T00:26:36.559Z,803.14
2018-05-13T00:26:40.763Z,803.13
2018-05-13T00:26:44.973Z,803.13
2018-05-13T00:26:49.298Z,803.06
2018-05-13T00:26:53.628Z,803.14
2018-05-13T00:26:57.838Z,803.13
2018-05-13T00:27:02.096Z,803.11
2018-05-13T00:27:06.308Z,803.13
2018-05-13T00:27:10.411Z,803.1
2018-05-13T00:27:14.732Z,803.12
2018-05-13T00:27:18.944Z,803.14
2018-05-13T00:27:23.047Z,803.13
2018-05-13T00:27:27.364Z,803.14
2018-05-13T00:27:31.580Z,803.17
2018-05-13T00:27:35.692Z,803.14
2018-05-13T00:27:39.896Z,803.16
2018-05-13T00:27:44.212Z,803.13
2018-05-13T00:27:48.430Z,803.15
2018-05-13T00:27:52.752Z,803.15
2018-05-13T00:27:57.070Z,803.18
2018-05-13T00:28:01.277Z,803.14
2018-05-13T00:28:05.486Z,803.14
2018-05-13T00:28:09.710Z,803.15
2018-05-13T00:28:14.033Z,803.17
2018-05-13T00:28:18.351Z,803.12
2018-05-13T00:28:22.566Z,803.15
2018-05-13T00:28:26.887Z,803.18
2018-05-13T00:28:31.209Z,803.18
2018-05-13T00:28:35.430Z,803.17
2018-05-13T00:28:39.536Z,803.19
2018-05-13T00:28:43.743Z,803.15
2018-05-13T00:28:48.076Z,803.12
2018-05-13T00:28:52.389Z,803.18
2018-05-13T00:28:56.597Z,803.16
2018-05-13T00:29:00.930Z,803.14
2018-05-13T00:29:05.138Z,803.17
2018-05-13T00:29:09.348Z,803.18
2018-05-13T00:29:13.670Z,803.18
2018-05-13T00:29:17.895Z,803.18
2018-05-13T00:29:22.354Z,803.17
2018-05-13T00:29:26.494Z,803.2
2018-05-13T00:29:30.711Z,803.18
2018-05-13T00:29:34.924Z,803.21
2018-05-13T00:29:39.244Z,803.2
2018-05-13T00:29:43.562Z,803.2
2018-05-13T00:29:47.773Z,803.2
2018-05-13T00:29:52.088Z,803.2
2018-05-13T00:29:56.306Z,803.2
2018-05-13T00:30:00.515Z,803.23
2018-05-13T00:30:04.713Z,803.23
2018-05-13T00:30:09.035Z,803.21
2018-05-13T00:30:13.361Z,803.18
2018-05-13T00:30:17.570Z,803.26
2018-05-13T00:30:21.572Z,803.26
2018-05-13T00:30:25.567Z,803.26
2018-05-13T00:30:29.786Z,803.22
2018-05-13T00:30:34.012Z,803.27
2018-05-13T00:30:38.358Z,803.28
2018-05-13T00:30:42.682Z,803.27
2018-05-13T00:30:46.896Z,803.31
2018-05-13T00:30:51.111Z,803.27
2018-05-13T00:30:55.319Z,803.29
2018-05-13T00:30:59.646Z,803.26
2018-05-13T00:31:03.640Z,803.3
2018-05-13T00:31:07.839Z,803.29
2018-05-13T00:31:12.159Z,803.3
2018-05-13T00:31:16.484Z,803.31
2018-05-13T00:31:20.846Z,803.27
2018-05-13T00:31:25.078Z,803.32
2018-05-13T00:31:29.310Z,803.26
2018-05-13T00:31:33.520Z,803.32
2018-05-13T00:31:37.842Z,803.34
2018-05-13T00:31:42.055Z,803.27
2018-05-13T00:31:46.047Z,803.3
2018-05-13T00:31:50.364Z,803.37
2018-05-13T00:31:54.684Z,803.35
2018-05-13T00:31:58.787Z,803.34
2018-05-13T00:32:03.113Z,803.38
2018-05-13T00:32:07.340Z,803.34
2018-05-13T00:32:11.556Z,803.4
2018-05-13T00:32:15.874Z,803.4
2018-05-13T00:32:19.975Z,803.39
2018-05-13T00:32:24.299Z,803.39
2018-05-13T00:32:28.624Z,803.39
2018-05-13T00:32:32.731Z,803.39
2018-05-13T00:32:37.052Z,803.38
2018-05-13T00:32:41.046Z,803.41
2018-05-13T00:32:45.253Z,803.41
2018-05-13T00:32:49.467Z,803.4
2018-05-13T00:32:53.792Z,803.41
2018-05-13T00:32:58.111Z,803.36
2018-05-13T00:33:02.440Z,803.41
2018-05-13T00:33:06.546Z,803.41
2018-05-13T00:33:10.864Z,803.42
2018-05-13T00:33:15.088Z,803.44
2018-05-13T00:33:19.411Z,803.46
2018-05-13T00:33:23.515Z,803.41
2018-05-13T00:33:27.842Z,803.47
2018-05-13T00:33:32.162Z,803.46
2018-05-13T00:33:36.476Z,803.46
2018-05-13T00:33:40.693Z,803.47
2018-05-13T00:33:44.910Z,803.48
2018-05-13T00:33:49.227Z,803.49
2018-05-13T00:33:53.556Z,803.47
2018-05-13T00:33:57.875Z,803.48
2018-05-13T00:34:02.235Z,803.46
2018-05-13T00:34:06.116Z,803.5
2018-05-13T00:34:10.332Z,803.49
2018-05-13T00:34:14.326Z,803.52
2018-05-13T00:34:18.534Z,803.43
2018-05-13T00:34:22.861Z,803.45
2018-05-13T00:34:26.963Z,803.43
2018-05-13T00:34:31.285Z,803.47
2018-05-13T00:34:35.502Z,803.49
2018-05-13T00:34:39.715Z,803.49
2018-05-13T00:34:43.918Z,803.46
2018-05-13T00:34:48.238Z,803.52
2018-05-13T00:34:52.450Z,803.5
2018-05-13T00:34:56.670Z,803.52
2018-05-13T00:35:00.990Z,803.5
2018-05-13T00:35:05.094Z,803.48
2018-05-13T00:35:08.984Z,803.54
2018-05-13T00:35:13.204Z,803.53
2018-05-13T00:35:17.308Z,803.53
2018-05-13T00:35:21.523Z,803.55
2018-05-13T00:35:25.735Z,803.57
2018-05-13T00:35:30.056Z,803.54
2018-05-13T00:35:34.266Z,803.54
2018-05-13T00:35:38.477Z,803.53
2018-05-13T00:35:42.683Z,803.54
2018-05-13T00:35:46.791Z,803.53
2018-05-13T00:35:50.893Z,803.55
2018-05-13T00:35:55.107Z,803.55
2018-05-13T00:35:59.526Z,803.56
2018-05-13T00:36:03.738Z,803.57
2018-05-13T00:36:07.851Z,803.6
2018-05-13T00:36:12.063Z,803.59
2018-05-13T00:36:16.384Z,803.58
2018-05-13T00:36:20.590Z,803.59
2018-05-13T00:36:24.912Z,803.57
2018-05-13T00:36:28.906Z,803.58
2018-05-13T00:36:33.227Z,803.61
2018-05-13T00:36:37.328Z,803.58
2018-05-13T00:36:41.536Z,803.59
2018-05-13T00:36:45.750Z,803.59
2018-05-13T00:36:49.954Z,803.6
2018-05-13T00:36:54.272Z,803.61
2018-05-13T00:36:58.276Z,803.62
2018-05-13T00:37:02.266Z,803.6
2018-05-13T00:37:06.489Z,803.62
2018-05-13T00:37:10.603Z,803.59
2018-05-13T00:37:14.915Z,803.58
2018-05-13T00:37:19.232Z,803.62
2018-05-13T00:37:23.443Z,803.62
2018-05-13T00:37:27.653Z,803.63
2018-05-13T00:37:31.871Z,803.64
2018-05-13T00:37:36.196Z,803.64
2018-05-13T00:37:40.404Z,803.63
2018-05-13T00:37:44.798Z,803.59
2018-05-13T00:37:48.902Z,803.66
2018-05-13T00:37:53.125Z,803.65
2018-05-13T00:37:57.335Z,803.63
2018-05-13T00:38:01.653Z,803.63
2018-05-13T00:38:05.858Z,803.65
2018-05-13T00:38:10.071Z,803.65
2018-05-13T00:38:14.277Z,803.64
2018-05-13T00:38:18.488Z,803.67
2018-05-13T00:38:22.482Z,803.66
2018-05-13T00:38:26.804Z,803.66
2018-05-13T00:38:31.016Z,803.68
2018-05-13T00:38:35.333Z,803.69
2018-05-13T00:38:39.545Z,803.6
2018-05-13T00:38:43.879Z,803.65
2018-05-13T00:38:48.219Z,803.67
2018-05-13T00:38:52.545Z,803.66
2018-05-13T00:38:56.759Z,803.68
2018-05-13T00:39:00.965Z,803.69
2018-05-13T00:39:05.064Z,803.68
2018-05-13T00:39:09.382Z,803.71
2018-05-13T00:39:13.709Z,803.7
2018-05-13T00:39:17.980Z,803.72
2018-05-13T00:39:22.090Z,803.72
2018-05-13T00:39:26.299Z,803.72
2018-05-13T00:39:30.481Z,803.72
2018-05-13T00:39:34.588Z,803.7
2018-05-13T00:39:38.910Z,803.73
2018-05-13T00:39:43.233Z,803.74
2018-05-13T00:39:47.436Z,803.68
2018-05-13T00:39:51.650Z,803.74
2018-05-13T00:39:56.074Z,803.71
2018-05-13T00:40:00.289Z,803.73
2018-05-13T00:40:04.390Z,803.74
2018-05-13T00:40:08.499Z,803.74
2018-05-13T00:40:12.603Z,803.75
2018-05-13T00:40:16.917Z,803.76
2018-05-13T00:40:21.154Z,803.78
2018-05-13T00:40:25.360Z,803.78
2018-05-13T00:40:29.755Z,803.81
2018-05-13T00:40:33.857Z,803.8
2018-05-13T00:40:38.065Z,803.79
2018-05-13T00:40:42.279Z,803.77
2018-05-13T00:40:46.596Z,803.74
2018-05-13T00:40:50.809Z,803.8
2018-05-13T00:40:55.136Z,803.74
2018-05-13T00:40:59.341Z,803.76
2018-05-13T00:41:03.567Z,803.77
2018-05-13T00:41:07.778Z,803.82
2018-05-13T00:41:12.101Z,803.8
2018-05-13T00:41:16.312Z,803.83
2018-05-13T00:41:20.520Z,803.77
2018-05-13T00:41:24.736Z,803.81
2018-05-13T00:41:28.840Z,803.79
2018-05-13T00:41:33.049Z,803.8
2018-05-13T00:41:37.348Z,803.83
2018-05-13T00:41:41.456Z,803.81
2018-05-13T00:41:45.794Z,803.84
2018-05-13T00:41:49.793Z,803.86
2018-05-13T00:41:54.118Z,803.84
2018-05-13T00:41:58.328Z,803.88
2018-05-13T00:42:02.536Z,803.85
2018-05-13T00:42:06.534Z,803.86
2018-05-13T00:42:10.752Z,803.9
2018-05-13T00:42:15.070Z,803.86
2018-05-13T00:42:19.177Z,803.89
2018-05-13T00:42:23.493Z,803.89
2018-05-13T00:42:27.716Z,803.87
2018-05-13T00:42:31.932Z,803.88
2018-05-13T00:42:36.146Z,803.89
2018-05-13T00:42:40.469Z,803.86
2018-05-13T00:42:44.680Z,803.91
2018-05-13T00:42:48.674Z,803.91
2018-05-13T00:42:52.879Z,803.91
2018-05-13T00:42:57.199Z,803.92
2018-05-13T00:43:01.522Z,803.91
2018-05-13T00:43:05.758Z,803.93
2018-05-13T00:43:10.079Z,803.9
2018-05-13T00:43:14.291Z,803.91
2018-05-13T00:43:18.391Z,803.94
2018-05-13T00:43:22.712Z,803.92
2018-05-13T00:43:26.919Z,803.93
2018-05-13T00:43:31.235Z,803.93
2018-05-13T00:43:35.562Z,803.94
2018-05-13T00:43:39.774Z,803.95
2018-05-13T00:43:43.768Z,803.92
2018-05-13T00:43:47.976Z,803.93
2018-05-13T00:43:52.304Z,803.94
2018-05-13T00:43:56.630Z,803.95
2018-05-13T00:44:00.943Z,803.92
2018-05-13T00:44:04.941Z,803.95
2018-05-13T00:44:09.153Z,803.91
2018-05-13T00:44:13.457Z,803.91
2018-05-13T00:44:17.772Z,803.95
2018-05-13T00:44:22.100Z,804.01
2018-05-13T00:44:26.424Z,804
2018-05-13T00:44:30.744Z,803.96
2018-05-13T00:44:34.955Z,803.99
2018-05-13T00:44:39.278Z,803.96
2018-05-13T00:44:43.483Z,803.96
2018-05-13T00:44:47.701Z,803.94
2018-05-13T00:44:52.025Z,803.97
2018-05-13T00:44:56.345Z,803.97
2018-05-13T00:45:00.560Z,803.99
2018-05-13T00:45:04.793Z,803.97
2018-05-13T00:45:08.786Z,803.97
2018-05-13T00:45:13.112Z,803.98
2018-05-13T00:45:17.588Z,804.02
2018-05-13T00:45:21.712Z,803.99
2018-05-13T00:45:25.937Z,803.99
2018-05-13T00:45:30.035Z,804.02
2018-05-13T00:45:34.359Z,804
2018-05-13T00:45:38.671Z,804
2018-05-13T00:45:42.776Z,803.96
2018-05-13T00:45:47.092Z,804.01
2018-05-13T00:45:51.311Z,804.05
2018-05-13T00:45:55.629Z,803.99
2018-05-13T00:45:59.846Z,803.95
2018-05-13T00:46:03.956Z,803.95
2018-05-13T00:46:08.280Z,803.99
2018-05-13T00:46:12.280Z,803.95
2018-05-13T00:46:16.606Z,803.96
2018-05-13T00:46:20.713Z,804.04
2018-05-13T00:46:24.923Z,803.97
2018-05-13T00:46:29.223Z,804.03
2018-05-13T00:46:33.551Z,804.01
2018-05-13T00:46:37.758Z,804
2018-05-13T00:46:42.074Z,804.01
2018-05-13T00:46:46.075Z,804.02
2018-05-13T00:46:50.387Z,803.99
2018-05-13T00:46:54.601Z,803.99
2018-05-13T00:46:58.819Z,804.02
2018-05-13T00:47:03.138Z,804.01
2018-05-13T00:47:07.344Z,804.02
2018-05-13T00:47:11.558Z,803.95
2018-05-13T00:47:15.772Z,803.99
2018-05-13T00:47:19.881Z,804
2018-05-13T00:47:24.199Z,803.99
2018-05-13T00:47:28.404Z,803.99
2018-05-13T00:47:32.610Z,803.98
2018-05-13T00:47:36.599Z,803.99
2018-05-13T00:47:40.808Z,804.02
2018-05-13T00:47:45.020Z,804
2018-05-13T00:47:49.343Z,803.96
2018-05-13T00:47:53.560Z,803.99
2018-05-13T00:47:57.772Z,803.95
2018-05-13T00:48:01.874Z,803.96
2018-05-13T00:48:06.087Z,803.93
2018-05-13T00:48:10.191Z,803.93
2018-05-13T00:48:14.584Z,803.92
2018-05-13T00:48:18.800Z,803.91
2018-05-13T00:48:23.112Z,803.94
2018-05-13T00:48:27.518Z,803.95
2018-05-13T00:48:31.841Z,803.94
2018-05-13T00:48:36.045Z,803.9
2018-05-13T00:48:40.359Z,803.92
2018-05-13T00:48:44.684Z,803.91
2018-05-13T00:48:48.897Z,803.9
2018-05-13T00:48:53.106Z,803.94
2018-05-13T00:48:57.208Z,803.87
2018-05-13T00:49:01.524Z,803.87
2018-05-13T00:49:05.852Z,803.91
2018-05-13T00:49:09.849Z,803.93
2018-05-13T00:49:14.174Z,803.91
2018-05-13T00:49:18.278Z,803.9
2018-05-13T00:49:22.597Z,803.9
2018-05-13T00:49:26.699Z,803.89
2018-05-13T00:49:30.907Z,803.9
2018-05-13T00:49:35.193Z,803.88
2018-05-13T00:49:39.291Z,803.91
2018-05-13T00:49:43.610Z,803.9
2018-05-13T00:49:47.825Z,803.88
2018-05-13T00:49:52.041Z,803.9
2018-05-13T00:49:56.374Z,803.89
2018-05-13T00:50:00.589Z,803.84
2018-05-13T00:50:04.698Z,803.87
2018-05-13T00:50:08.916Z,803.84
2018-05-13T00:50:13.136Z,803.85
2018-05-13T00:50:17.345Z,803.86
2018-05-13T00:50:21.661Z,803.84
2018-05-13T00:50:25.870Z,803.84
2018-05-13T00:50:30.196Z,803.85
2018-05-13T00:50:34.935Z,803.83
2018-05-13T00:50:39.362Z,803.82
2018-05-13T00:50:44.250Z,803.84
2018-05-13T00:50:48.811Z,803.81
2018-05-13T00:50:53.131Z,803.83
2018-05-13T00:50:57.341Z,803.77
2018-05-13T00:51:01.555Z,803.78
2018-05-13T00:51:05.885Z,803.77
2018-05-13T00:51:10.211Z,803.78
2018-05-13T00:51:14.420Z,803.77
2018-05-13T00:51:18.543Z,803.8
2018-05-13T00:51:22.718Z,803.76
2018-05-13T00:51:27.034Z,803.76
2018-05-13T00:51:31.249Z,803.75
2018-05-13T00:51:35.455Z,803.76
2018-05-13T00:51:39.662Z,803.76
2018-05-13T00:51:43.868Z,803.74
2018-05-13T00:51:48.188Z,803.74
2018-05-13T00:51:52.504Z,803.75
2018-05-13T00:51:56.817Z,803.69
2018-05-13T00:52:01.136Z,803.71
2018-05-13T00:52:05.359Z,803.66
2018-05-13T00:52:09.458Z,803.68
2018-05-13T00:52:13.786Z,803.7
2018-05-13T00:52:18.006Z,803.69
2018-05-13T00:52:22.232Z,803.69
2018-05-13T00:52:26.499Z,803.69
2018-05-13T00:52:30.825Z,803.68
2018-05-13T00:52:35.043Z,803.65
2018-05-13T00:52:39.257Z,803.66
2018-05-13T00:52:43.466Z,803.65
2018-05-13T00:52:47.780Z,803.63
2018-05-13T00:52:51.890Z,803.62
2018-05-13T00:52:56.094Z,803.66
2018-05-13T00:53:00.198Z,803.65
2018-05-13T00:53:04.526Z,803.64
2018-05-13T00:53:08.743Z,803.62
2018-05-13T00:53:12.953Z,803.62
2018-05-13T00:53:17.274Z,803.62
2018-05-13T00:53:21.588Z,803.62
2018-05-13T00:53:25.590Z,803.59
2018-05-13T00:53:29.904Z,803.61
2018-05-13T00:53:34.243Z,803.59